Time;durP1;ratioP1;P1;durP2;ratioP2;P2;SDS_P1;SDS_P2;PMS_P1;PMS_P2;Temp;Humidity;BMP_temperature;BMP_pressure;BME280_temperature;BME280_humidity;BME280_pressure;Samples;Min_cycle;Max_cycle;Signal;HPM_P1;HPM_P2
2021/12/14 00:01:45;;;;;;;0.98;0.90;;;18.70;64.30;;;;;;4899744;29;20037;-68
2021/12/14 00:04:17;;;;;;;1.30;0.88;;;18.70;65.20;;;;;;4917056;29;20044;-68
2021/12/14 00:06:43;;;;;;;1.48;0.90;;;18.70;64.20;;;;;;4901105;29;20052;-67
2021/12/14 00:09:10;;;;;;;0.95;0.80;;;18.70;64.30;;;;;;4901159;29;20110;-67
2021/12/14 00:14:26;;;;;;;1.02;0.80;;;18.70;64.30;;;;;;4913834;29;20040;-67
2021/12/14 00:16:56;;;;;;;0.73;0.73;;;18.70;64.30;;;;;;4891761;29;20115;-67
2021/12/14 00:19:22;;;;;;;1.45;0.70;;;18.70;64.40;;;;;;4990747;28;20049;-67
2021/12/14 00:21:51;;;;;;;2.83;0.80;;;18.70;64.30;;;;;;5010553;28;20026;-67
2021/12/14 00:24:17;;;;;;;2.63;0.82;;;18.70;64.30;;;;;;5010570;28;20026;-67
2021/12/14 00:26:47;;;;;;;0.95;0.80;;;18.70;64.40;;;;;;5001571;28;20116;-67
2021/12/14 00:29:25;;;;;;;0.75;0.70;;;18.70;64.30;;;;;;5004820;28;20062;-67
2021/12/14 00:31:51;;;;;;;0.63;0.60;;;18.70;64.40;;;;;;4995549;28;20523;-67
2021/12/14 00:34:23;;;;;;;1.73;0.82;;;18.70;64.40;;;;;;4998688;28;20065;-67
2021/12/14 00:36:50;;;;;;;0.90;0.70;;;18.70;64.40;;;;;;5015097;28;20018;-67
2021/12/14 00:39:15;;;;;;;0.93;0.80;;;18.70;64.40;;;;;;5013812;28;20046;-68
2021/12/14 00:41:42;;;;;;;1.00;0.70;;;18.70;64.40;;;;;;5014776;28;20044;-68
2021/12/14 00:44:08;;;;;;;3.33;0.80;;;18.70;64.40;;;;;;5013734;28;20026;-67
2021/12/14 00:46:35;;;;;;;1.15;0.65;;;18.70;64.40;;;;;;5015242;28;20076;-67
2021/12/14 00:49:02;;;;;;;1.08;0.73;;;18.70;64.40;;;;;;5013435;28;20029;-67
2021/12/14 00:51:28;;;;;;;0.73;0.73;;;18.70;64.50;;;;;;5014005;28;20021;-67
2021/12/14 00:53:56;;;;;;;1.20;0.93;;;18.70;64.40;;;;;;5013706;28;20116;-67
2021/12/14 00:56:22;;;;;;;0.80;0.80;;;18.70;64.40;;;;;;5014865;28;20018;-67
2021/12/14 00:58:47;;;;;;;2.00;0.70;;;18.70;64.40;;;;;;5015003;28;20025;-67
2021/12/14 01:01:28;;;;;;;0.80;0.80;;;18.70;64.40;;;;;;5014720;28;20010;-67
2021/12/14 01:03:56;;;;;;;0.70;0.70;;;18.70;64.40;;;;;;5009952;28;20034;-68
2021/12/14 01:06:24;;;;;;;1.70;0.60;;;18.70;64.50;;;;;;4993962;28;20112;-67
2021/12/14 01:08:50;;;;;;;1.10;0.80;;;18.70;64.40;;;;;;4994107;28;20014;-68
2021/12/14 01:11:41;;;;;;;1.00;0.60;;;18.70;64.50;;;;;;5010126;28;20165;-68
2021/12/14 01:14:39;;;;;;;0.95;0.77;;;18.70;64.50;;;;;;4994956;28;20026;-68
2021/12/14 01:17:11;;;;;;;0.70;0.70;;;18.70;64.50;;;;;;4990520;28;20560;-68
2021/12/14 01:19:42;;;;;;;0.65;0.65;;;18.70;64.60;;;;;;5009111;28;20099;-68
2021/12/14 01:27:32;;;;;;;0.70;0.70;;;18.60;64.50;;;;;;5009581;28;20034;-67
2021/12/14 01:30:02;;;;;;;0.90;0.77;;;18.60;64.60;;;;;;5009695;28;20027;-67
2021/12/14 01:32:30;;;;;;;2.13;0.82;;;18.60;64.50;;;;;;5008686;28;20026;-68
2021/12/14 01:34:55;;;;;;;0.85;0.73;;;18.60;64.50;;;;;;4994750;28;20022;-68
2021/12/14 01:37:26;;;;;;;0.73;0.73;;;18.60;64.60;;;;;;5009627;28;20562;-68
2021/12/14 01:42:24;;;;;;;0.50;0.50;;;18.60;64.60;;;;;;5008940;28;20026;-68
2021/12/14 01:44:51;;;;;;;0.80;0.80;;;18.60;64.60;;;;;;4993191;28;20022;-68
2021/12/14 01:47:24;;;;;;;1.40;0.90;;;18.60;64.60;;;;;;5009116;28;20046;-67
2021/12/14 01:49:50;;;;;;;1.15;0.60;;;18.60;64.60;;;;;;5009525;28;20030;-67
2021/12/14 01:52:28;;;;;;;1.05;0.80;;;18.60;64.60;;;;;;5009275;28;20026;-67
2021/12/14 01:54:58;;;;;;;0.60;0.60;;;18.70;64.60;;;;;;5009474;28;20408;-68
2021/12/14 01:57:25;;;;;;;0.80;0.50;;;18.60;64.60;;;;;;4993985;28;20029;-68
2021/12/14 01:59:55;;;;;;;0.70;0.70;;;18.60;64.60;;;;;;5009307;28;20073;-68
2021/12/14 02:02:42;;;;;;;1.42;0.75;;;18.60;64.60;;;;;;4996176;28;20022;-68
2021/12/14 02:05:48;;;;;;;0.63;0.57;;;18.70;64.70;;;;;;5011880;28;20038;-67
2021/12/14 02:08:21;;;;;;;0.70;0.68;;;18.60;64.70;;;;;;5012037;28;20037;-68
2021/12/14 02:10:47;;;;;;;0.60;0.60;;;18.60;64.80;;;;;;4991965;28;20085;-67
2021/12/14 02:13:12;;;;;;;0.55;0.52;;;18.60;64.70;;;;;;4992868;28;20066;-67
2021/12/14 02:15:42;;;;;;;0.75;0.75;;;18.50;64.70;;;;;;4992789;28;20037;-67
2021/12/14 02:18:14;;;;;;;0.75;0.60;;;18.60;64.70;;;;;;4975160;28;20019;-67
2021/12/14 02:20:53;;;;;;;0.52;0.52;;;18.60;65.70;;;;;;4991880;28;20054;-67
2021/12/14 02:23:20;;;;;;;0.68;0.63;;;18.60;64.70;;;;;;4992734;28;20053;-67
2021/12/14 02:25:46;;;;;;;0.93;0.68;;;18.60;64.70;;;;;;4992994;28;20037;-67
2021/12/14 02:28:15;;;;;;;0.63;0.63;;;18.60;64.80;;;;;;4991603;28;20026;-67
2021/12/14 02:30:41;;;;;;;0.57;0.57;;;18.60;64.70;;;;;;4992511;28;20500;-68
2021/12/14 02:33:19;;;;;;;0.60;0.60;;;18.60;64.80;;;;;;4991454;28;20034;-68
2021/12/14 02:35:45;;;;;;;0.90;0.65;;;18.60;64.70;;;;;;4992783;28;20485;-67
2021/12/14 02:38:11;;;;;;;1.38;0.57;;;18.60;64.70;;;;;;4991372;28;20054;-68
2021/12/14 02:40:54;;;;;;;0.75;0.75;;;18.60;64.80;;;;;;4991595;28;20057;-67
2021/12/14 02:43:26;;;;;;;0.63;0.45;;;18.60;64.80;;;;;;4977198;28;20018;-68
2021/12/14 02:45:54;;;;;;;0.80;0.60;;;18.60;64.80;;;;;;4992418;28;20053;-67
2021/12/14 02:48:20;;;;;;;1.02;0.70;;;18.60;64.80;;;;;;4991238;28;20030;-68
2021/12/14 02:50:45;;;;;;;0.60;0.60;;;18.60;64.80;;;;;;4975257;28;20037;-68
2021/12/14 02:53:12;;;;;;;1.25;0.60;;;18.60;64.80;;;;;;4991274;28;20117;-68
2021/12/14 02:55:38;;;;;;;0.95;0.80;;;18.60;64.80;;;;;;4992566;28;20109;-67
2021/12/14 02:58:05;;;;;;;1.02;0.70;;;18.60;64.80;;;;;;4991412;28;20097;-67
2021/12/14 03:00:38;;;;;;;0.60;0.57;;;18.60;64.80;;;;;;4991808;28;20025;-67
2021/12/14 03:03:04;;;;;;;0.55;0.55;;;18.60;64.80;;;;;;5005327;28;20029;-67
2021/12/14 03:05:32;;;;;;;2.30;0.77;;;18.60;64.90;;;;;;4966080;28;1299011;-68
2021/12/14 03:08:01;;;;;;;1.30;0.60;;;18.60;64.90;;;;;;5012760;28;20034;-67
2021/12/14 03:12:57;;;;;;;0.63;0.57;;;18.60;64.90;;;;;;4995704;28;20488;-67
2021/12/14 03:15:33;;;;;;;0.55;0.55;;;18.60;64.90;;;;;;5011073;28;20022;-67
2021/12/14 03:18:07;;;;;;;0.63;0.63;;;18.60;64.90;;;;;;4995675;28;20037;-67
2021/12/14 03:20:58;;;;;;;0.77;0.70;;;18.60;64.90;;;;;;5011406;28;20025;-67
2021/12/14 03:23:29;;;;;;;1.50;0.70;;;18.60;64.80;;;;;;5011329;28;20062;-68
2021/12/14 03:25:56;;;;;;;0.95;0.65;;;18.60;64.90;;;;;;5012597;28;20029;-67
2021/12/14 03:28:23;;;;;;;0.60;0.60;;;18.60;64.90;;;;;;4994559;28;20492;-68
2021/12/14 03:31:23;;;;;;;0.52;0.50;;;18.60;64.90;;;;;;5012724;28;20088;-68
2021/12/14 03:34:14;;;;;;;0.50;0.50;;;18.60;64.90;;;;;;4975075;28;20035;-67
2021/12/14 03:36:53;;;;;;;0.60;0.60;;;18.60;65.00;;;;;;4954713;28;20390;-67
2021/12/14 03:39:24;;;;;;;0.60;0.60;;;18.60;65.00;;;;;;4958940;28;20062;-68
2021/12/14 03:41:54;;;;;;;0.93;0.65;;;18.60;65.00;;;;;;4958990;28;20076;-67
2021/12/14 03:44:49;;;;;;;0.50;0.50;;;18.60;65.10;;;;;;4958430;28;20035;-68
2021/12/14 03:47:20;;;;;;;0.60;0.60;;;18.60;65.00;;;;;;4959435;28;20031;-68
2021/12/14 03:49:48;;;;;;;0.73;0.52;;;18.60;65.10;;;;;;4958723;28;20505;-67
2021/12/14 03:52:17;;;;;;;0.77;0.60;;;18.60;65.00;;;;;;4958760;28;20489;-67
2021/12/14 03:54:43;;;;;;;0.60;0.60;;;18.60;65.00;;;;;;4974832;28;20034;-67
2021/12/14 03:57:09;;;;;;;0.65;0.45;;;18.60;65.10;;;;;;4958503;28;20393;-68
2021/12/14 03:59:34;;;;;;;0.50;0.50;;;18.60;65.00;;;;;;4958739;28;20501;-67
2021/12/14 04:02:03;;;;;;;0.70;0.60;;;18.60;65.00;;;;;;4958580;28;20104;-68
2021/12/14 04:04:31;;;;;;;0.40;0.40;;;18.60;65.00;;;;;;4958447;28;20086;-68
2021/12/14 04:06:58;;;;;;;0.73;0.60;;;18.60;65.00;;;;;;4965022;28;20049;-68
2021/12/14 04:09:25;;;;;;;0.47;0.45;;;18.60;65.10;;;;;;4998381;28;20014;-68
2021/12/14 04:11:50;;;;;;;0.50;0.50;;;18.60;65.00;;;;;;5014171;28;20033;-68
2021/12/14 04:14:16;;;;;;;2.15;0.75;;;18.60;65.10;;;;;;5015408;28;20022;-68
2021/12/14 04:16:44;;;;;;;0.77;0.50;;;18.60;65.10;;;;;;5015761;28;20403;-68
2021/12/14 04:19:13;;;;;;;0.80;0.50;;;18.60;65.10;;;;;;5014472;28;20030;-68
2021/12/14 04:21:41;;;;;;;0.47;0.40;;;18.60;65.10;;;;;;5014566;28;20091;-67
2021/12/14 04:24:07;;;;;;;0.50;0.50;;;18.60;65.10;;;;;;5014471;28;20061;-68
2021/12/14 04:26:33;;;;;;;1.30;0.70;;;18.60;65.10;;;;;;4997645;28;20056;-68
2021/12/14 04:29:00;;;;;;;0.50;0.50;;;18.60;65.10;;;;;;5015275;28;20476;-67
2021/12/14 04:31:25;;;;;;;0.82;0.60;;;18.60;65.10;;;;;;5014283;28;20022;-68
2021/12/14 04:33:51;;;;;;;0.70;0.50;;;18.60;65.10;;;;;;4997960;28;20052;-68
2021/12/14 04:36:21;;;;;;;0.60;0.60;;;18.60;65.20;;;;;;5014144;28;20026;-68
2021/12/14 04:38:58;;;;;;;0.43;0.43;;;18.60;65.10;;;;;;5014214;28;20072;-68
2021/12/14 04:52:23;;;;;;;0.60;0.60;;;18.50;65.20;;;;;;5014893;28;20040;-67
2021/12/14 04:55:01;;;;;;;0.50;0.50;;;18.50;65.20;;;;;;5013952;28;20022;-67
2021/12/14 04:57:43;;;;;;;0.60;0.60;;;18.50;65.20;;;;;;4982620;28;20026;-67
2021/12/14 05:00:26;;;;;;;0.33;0.33;;;18.60;65.20;;;;;;5013718;28;20029;-68
2021/12/14 05:02:52;;;;;;;1.55;0.45;;;18.60;65.20;;;;;;5014669;28;20098;-68
2021/12/14 05:05:47;;;;;;;0.70;0.60;;;18.50;65.20;;;;;;5014431;28;20532;-68
2021/12/14 05:10:47;;;;;;;0.60;0.60;;;18.60;65.30;;;;;;4978857;28;20135;-68
2021/12/14 05:13:17;;;;;;;0.70;0.63;;;18.60;65.30;;;;;;4978204;28;20026;-68
2021/12/14 05:15:43;;;;;;;0.40;0.40;;;18.50;65.30;;;;;;4994881;28;20026;-67
2021/12/14 05:18:12;;;;;;;2.50;0.73;;;18.50;65.20;;;;;;4995024;28;20054;-67
2021/12/14 05:20:45;;;;;;;3.42;0.55;;;18.60;65.30;;;;;;4993655;28;20551;-67
2021/12/14 05:23:12;;;;;;;1.08;0.45;;;18.50;65.20;;;;;;4993764;28;20018;-68
2021/12/14 05:25:38;;;;;;;0.50;0.40;;;18.60;65.30;;;;;;4993352;28;20026;-68
2021/12/14 05:28:05;;;;;;;0.40;0.40;;;18.60;65.30;;;;;;4994895;28;20027;-68
2021/12/14 05:30:33;;;;;;;0.82;0.40;;;18.60;65.30;;;;;;4994626;28;20472;-68
2021/12/14 05:33:10;;;;;;;0.40;0.40;;;18.60;65.30;;;;;;4993545;28;20093;-68
2021/12/14 05:35:37;;;;;;;0.50;0.40;;;18.60;65.30;;;;;;4977808;28;20031;-68
2021/12/14 05:38:04;;;;;;;0.60;0.60;;;18.50;65.30;;;;;;4977687;28;20033;-68
2021/12/14 05:43:07;;;;;;;0.50;0.40;;;18.50;65.30;;;;;;4994493;28;20018;-68
2021/12/14 05:45:41;;;;;;;0.40;0.40;;;18.50;65.30;;;;;;4978281;28;20034;-67
2021/12/14 05:48:08;;;;;;;0.32;0.32;;;18.60;65.40;;;;;;4993446;28;20031;-68
2021/12/14 05:50:47;;;;;;;0.43;0.40;;;18.50;65.30;;;;;;4993170;28;20089;-67
2021/12/14 05:53:40;;;;;;;0.40;0.40;;;18.60;65.30;;;;;;4996404;28;20021;-67
2021/12/14 05:56:15;;;;;;;0.40;0.40;;;18.60;65.30;;;;;;5004571;28;20030;-67
2021/12/14 05:58:41;;;;;;;0.50;0.50;;;18.50;65.40;;;;;;5008313;28;20026;-67
2021/12/14 06:01:09;;;;;;;1.95;0.50;;;18.50;65.40;;;;;;5009839;28;20018;-67
2021/12/14 06:03:39;;;;;;;0.40;0.40;;;18.50;65.40;;;;;;5009659;28;20026;-67
2021/12/14 06:06:05;;;;;;;0.40;0.40;;;18.50;65.40;;;;;;5006792;28;20480;-67
2021/12/14 06:08:33;;;;;;;0.50;0.50;;;18.50;65.40;;;;;;5008113;28;20125;-67
2021/12/14 06:10:59;;;;;;;2.25;0.63;;;18.50;65.40;;;;;;5010751;28;20467;-67
2021/12/14 06:13:41;;;;;;;0.35;0.35;;;18.50;65.40;;;;;;5012533;28;20030;-67
2021/12/14 06:16:08;;;;;;;0.75;0.40;;;18.60;65.40;;;;;;5012885;28;20072;-67
2021/12/14 06:18:34;;;;;;;0.43;0.43;;;18.50;65.40;;;;;;5012640;28;20105;-68
2021/12/14 06:20:59;;;;;;;2.05;0.43;;;18.50;65.40;;;;;;5012643;28;20113;-67
2021/12/14 06:23:26;;;;;;;0.40;0.32;;;18.50;65.50;;;;;;5012309;28;20125;-68
2021/12/14 06:25:52;;;;;;;0.47;0.40;;;18.50;65.40;;;;;;4995391;28;20385;-67
2021/12/14 06:28:28;;;;;;;0.50;0.40;;;18.60;65.50;;;;;;4992076;28;20028;-68
2021/12/14 06:30:54;;;;;;;0.50;0.40;;;18.60;65.50;;;;;;4979214;28;20034;-67
2021/12/14 06:33:20;;;;;;;0.40;0.40;;;18.50;65.50;;;;;;4989167;28;20489;-67
2021/12/14 06:35:49;;;;;;;0.50;0.50;;;18.60;65.50;;;;;;4985628;28;20026;-68
2021/12/14 06:38:30;;;;;;;0.65;0.50;;;18.60;65.50;;;;;;4998821;28;20018;-68
2021/12/14 06:41:08;;;;;;;0.57;0.40;;;18.60;65.50;;;;;;4993715;28;20099;-67
2021/12/14 06:43:34;;;;;;;0.47;0.47;;;18.50;65.50;;;;;;5001361;28;20033;-68
2021/12/14 06:46:08;;;;;;;0.40;0.38;;;18.60;65.60;;;;;;5001159;28;20026;-68
2021/12/14 06:48:38;;;;;;;0.57;0.50;;;18.60;65.60;;;;;;5007558;28;20037;-67
2021/12/14 06:51:16;;;;;;;0.40;0.40;;;18.60;65.60;;;;;;4993124;28;20026;-67
2021/12/14 06:53:44;;;;;;;0.50;0.50;;;18.60;65.60;;;;;;4984678;28;20022;-67
2021/12/14 06:56:11;;;;;;;0.50;0.45;;;18.60;65.70;;;;;;4982935;28;20237;-67
2021/12/14 06:58:47;;;;;;;0.40;0.40;;;18.60;65.60;;;;;;5007813;28;20473;-67
2021/12/14 07:01:18;;;;;;;0.40;0.40;;;18.50;65.60;;;;;;4981148;28;20022;-67
2021/12/14 07:03:53;;;;;;;0.50;0.50;;;18.50;65.60;;;;;;5000018;28;20037;-67
2021/12/14 07:06:50;;;;;;;0.38;0.38;;;18.60;65.60;;;;;;5004329;28;20534;-68
2021/12/14 07:09:20;;;;;;;0.30;0.30;;;18.60;65.60;;;;;;5009318;28;20113;-67
2021/12/14 07:11:48;;;;;;;0.30;0.30;;;18.50;65.70;;;;;;5002449;28;20058;-67
2021/12/14 07:14:48;;;;;;;1.05;0.75;;;18.60;65.70;;;;;;5003735;28;20052;-67
2021/12/14 07:17:18;;;;;;;0.40;0.40;;;18.60;65.50;;;;;;5006512;28;20034;-68
2021/12/14 07:19:43;;;;;;;0.20;0.20;;;18.60;65.60;;;;;;4999420;28;20018;-68
2021/12/14 07:22:37;;;;;;;0.30;0.30;;;18.50;65.50;;;;;;5011743;28;20029;-68
2021/12/14 07:25:04;;;;;;;0.43;0.40;;;18.60;65.50;;;;;;5006188;28;20034;-67
2021/12/14 07:27:31;;;;;;;0.30;0.30;;;18.60;65.60;;;;;;5011517;28;20038;-67
2021/12/14 07:30:25;;;;;;;0.30;0.30;;;18.60;65.50;;;;;;5011100;28;20014;-68
2021/12/14 07:32:54;;;;;;;0.47;0.38;;;18.60;65.30;;;;;;5012363;28;20026;-68
2021/12/14 07:35:49;;;;;;;0.40;0.40;;;18.60;65.50;;;;;;5010880;28;20066;-68
2021/12/14 07:38:18;;;;;;;0.68;0.30;;;18.60;65.40;;;;;;5011549;28;20035;-68
2021/12/14 07:40:49;;;;;;;4.53;0.90;;;18.60;65.50;;;;;;5011030;28;20097;-67
2021/12/14 07:43:21;;;;;;;3.90;1.40;;;18.60;65.50;;;;;;5008481;28;20026;-67
2021/12/14 07:45:49;;;;;;;4.75;1.00;;;18.70;65.50;;;;;;4993854;28;20156;-67
2021/12/14 07:48:15;;;;;;;3.38;1.15;;;18.70;65.50;;;;;;5011302;28;20029;-67
2021/12/14 07:50:53;;;;;;;5.57;1.20;;;18.70;65.50;;;;;;4977484;28;20500;-67
2021/12/14 07:53:33;;;;;;;2.15;1.10;;;18.70;65.40;;;;;;5011139;28;20029;-67
2021/12/14 07:55:59;;;;;;;3.65;1.20;;;18.80;65.30;;;;;;5012208;28;20054;-67
2021/12/14 07:58:36;;;;;;;2.08;1.00;;;18.70;65.30;;;;;;5012195;28;20060;-67
2021/12/14 08:01:02;;;;;;;3.42;0.93;;;18.80;65.30;;;;;;5010729;28;20018;-67
2021/12/14 08:03:33;;;;;;;4.32;1.23;;;18.70;65.30;;;;;;4999632;28;20021;-67
2021/12/14 08:06:01;;;;;;;3.28;1.10;;;18.80;65.30;;;;;;4988916;28;20038;-67
2021/12/14 08:08:34;;;;;;;2.00;0.73;;;18.70;65.30;;;;;;4994885;28;20022;-67
2021/12/14 08:11:48;;;;;;;2.50;1.08;;;18.80;65.30;;;;;;4994363;28;20092;-67
2021/12/14 08:13:49;;;;;;;1.75;1.10;;;18.80;65.30;;;;;;4997327;28;20412;-67
2021/12/14 08:16:15;;;;;;;3.30;1.15;;;18.80;65.30;;;;;;5012376;28;20049;-67
2021/12/14 08:18:41;;;;;;;3.45;0.80;;;18.80;65.30;;;;;;5015420;28;20123;-67
2021/12/14 08:21:08;;;;;;;2.45;1.00;;;18.80;65.20;;;;;;4983342;28;20033;-67
2021/12/14 08:23:42;;;;;;;3.13;0.95;;;18.80;65.20;;;;;;4995867;28;20034;-67
2021/12/14 08:26:10;;;;;;;1.08;0.70;;;18.80;65.20;;;;;;4994791;28;20499;-67
2021/12/14 08:29:00;;;;;;;1.60;0.82;;;18.80;65.20;;;;;;4994734;28;20022;-67
2021/12/14 08:31:33;;;;;;;2.60;0.98;;;18.90;65.00;;;;;;4994796;28;20034;-67
2021/12/14 08:34:07;;;;;;;1.33;0.80;;;18.90;65.20;;;;;;4994338;28;20022;-67
2021/12/14 08:36:37;;;;;;;3.67;0.98;;;18.80;65.10;;;;;;4995980;28;20022;-67
2021/12/14 08:39:09;;;;;;;1.70;0.98;;;18.80;65.10;;;;;;5013965;28;20045;-67
2021/12/14 08:41:35;;;;;;;1.70;0.70;;;18.80;65.00;;;;;;5014169;28;20029;-67
2021/12/14 08:44:09;;;;;;;1.52;1.10;;;18.80;65.10;;;;;;4997549;28;20030;-67
2021/12/14 08:46:35;;;;;;;2.05;0.90;;;18.90;65.10;;;;;;4998748;28;20037;-67
2021/12/14 08:49:03;;;;;;;2.33;0.52;;;18.90;65.10;;;;;;5013367;28;20037;-67
2021/12/14 08:51:37;;;;;;;2.72;0.80;;;18.90;65.00;;;;;;4998045;28;20022;-67
2021/12/14 08:54:11;;;;;;;0.73;0.60;;;18.90;65.00;;;;;;5013797;28;20018;-67
2021/12/14 08:56:46;;;;;;;0.82;0.57;;;18.90;65.00;;;;;;5014908;28;20485;-67
2021/12/14 08:59:11;;;;;;;2.90;0.88;;;18.90;65.00;;;;;;5013661;28;20015;-67
2021/12/14 09:01:40;;;;;;;1.55;0.93;;;18.90;65.00;;;;;;5011680;28;20033;-67
2021/12/14 09:04:15;;;;;;;1.08;0.57;;;18.90;65.00;;;;;;4995115;28;20020;-67
2021/12/14 09:06:42;;;;;;;2.00;0.73;;;18.90;65.00;;;;;;4978942;28;20054;-67
2021/12/14 09:09:14;;;;;;;0.93;0.60;;;18.90;64.90;;;;;;4994783;28;20401;-67
2021/12/14 09:11:41;;;;;;;1.10;0.50;;;18.90;64.90;;;;;;5003318;28;20026;-68
2021/12/14 09:14:09;;;;;;;1.90;0.60;;;18.90;64.90;;;;;;5014411;28;20018;-67
2021/12/14 09:16:35;;;;;;;0.50;0.50;;;18.90;64.90;;;;;;5014540;28;20021;-67
2021/12/14 09:19:14;;;;;;;1.42;0.52;;;18.90;64.90;;;;;;5013105;28;20114;-67
2021/12/14 09:21:42;;;;;;;1.42;0.80;;;19.00;64.80;;;;;;5013451;28;20029;-67
2021/12/14 09:24:10;;;;;;;0.95;0.60;;;18.90;64.90;;;;;;4997031;28;20129;-67
2021/12/14 09:26:37;;;;;;;1.25;0.73;;;19.00;64.90;;;;;;5013313;28;20080;-67
2021/12/14 09:29:06;;;;;;;0.82;0.60;;;18.90;64.80;;;;;;5012065;28;20025;-67
2021/12/14 09:31:33;;;;;;;1.60;0.70;;;18.90;65.80;;;;;;4996664;28;20028;-67
2021/12/14 09:33:59;;;;;;;0.88;0.70;;;18.90;64.80;;;;;;5013068;28;20057;-67
2021/12/14 09:36:28;;;;;;;0.82;0.35;;;18.90;64.80;;;;;;5013107;28;20030;-67
2021/12/14 09:38:56;;;;;;;1.10;0.50;;;18.90;64.70;;;;;;5013986;28;20014;-67
2021/12/14 09:41:24;;;;;;;0.73;0.50;;;18.90;64.70;;;;;;5014285;28;20022;-67
2021/12/14 09:43:50;;;;;;;0.52;0.45;;;18.90;64.70;;;;;;4996867;28;20116;-67
2021/12/14 09:46:17;;;;;;;0.77;0.50;;;18.90;64.70;;;;;;5012474;28;20105;-67
2021/12/14 09:48:47;;;;;;;0.98;0.60;;;18.90;64.70;;;;;;5012905;28;20125;-67
2021/12/14 09:51:15;;;;;;;0.80;0.50;;;19.00;64.70;;;;;;4996593;28;20022;-67
2021/12/14 09:53:42;;;;;;;0.70;0.50;;;18.90;64.60;;;;;;5013911;28;20057;-67
2021/12/14 09:56:09;;;;;;;0.70;0.55;;;18.90;64.60;;;;;;5013881;28;20029;-67
2021/12/14 09:58:40;;;;;;;1.02;0.68;;;18.90;64.60;;;;;;5012529;28;20472;-67
2021/12/14 10:01:09;;;;;;;0.82;0.60;;;19.00;64.60;;;;;;5012220;28;20025;-67
2021/12/14 10:03:35;;;;;;;0.47;0.45;;;18.90;64.60;;;;;;5013517;28;20033;-67
2021/12/14 10:06:07;;;;;;;1.80;0.80;;;18.90;64.60;;;;;;5013465;28;20054;-67
2021/12/14 10:08:35;;;;;;;1.20;0.65;;;19.00;64.60;;;;;;4996919;28;20498;-67
2021/12/14 10:11:11;;;;;;;0.60;0.60;;;18.90;64.60;;;;;;5009059;28;20026;-67
2021/12/14 10:13:40;;;;;;;0.30;0.30;;;19.00;64.50;;;;;;4993764;28;20070;-67
2021/12/14 10:16:06;;;;;;;0.88;0.50;;;19.00;64.50;;;;;;4993552;28;20026;-67
2021/12/14 10:18:52;;;;;;;0.95;0.60;;;18.90;64.50;;;;;;4960352;28;20121;-67
2021/12/14 10:21:23;;;;;;;0.73;0.40;;;19.00;64.50;;;;;;4992870;28;20038;-67
2021/12/14 10:23:49;;;;;;;0.70;0.50;;;18.90;64.50;;;;;;4993816;28;20555;-67
2021/12/14 10:26:15;;;;;;;0.45;0.45;;;18.90;64.40;;;;;;4976291;28;20396;-67
2021/12/14 10:28:41;;;;;;;0.95;0.45;;;18.90;64.40;;;;;;4976032;28;20018;-67
2021/12/14 10:31:11;;;;;;;0.85;0.50;;;18.90;64.40;;;;;;4993552;28;20608;-67
2021/12/14 10:33:38;;;;;;;1.00;0.47;;;18.90;64.30;;;;;;4992370;28;20033;-67
2021/12/14 10:36:16;;;;;;;0.95;0.40;;;19.00;64.40;;;;;;4992458;28;20496;-67
2021/12/14 10:39:03;;;;;;;0.43;0.35;;;18.90;64.30;;;;;;4992448;28;20023;-67
2021/12/14 10:44:11;;;;;;;0.82;0.50;;;18.90;64.30;;;;;;4978384;28;20421;-67
2021/12/14 10:46:39;;;;;;;0.40;0.40;;;18.90;64.30;;;;;;4993417;28;20484;-67
2021/12/14 10:49:05;;;;;;;1.27;0.63;;;18.90;64.30;;;;;;4991910;28;20515;-67
2021/12/14 10:51:36;;;;;;;0.68;0.68;;;18.90;64.30;;;;;;4976102;28;20061;-67
2021/12/14 10:54:03;;;;;;;0.38;0.32;;;18.90;64.20;;;;;;4993162;28;20025;-67
2021/12/14 10:56:35;;;;;;;0.40;0.40;;;19.00;64.30;;;;;;4976041;28;20026;-67
2021/12/14 10:59:05;;;;;;;0.47;0.38;;;18.90;64.20;;;;;;4975669;28;20048;-67
2021/12/14 11:01:33;;;;;;;0.30;0.30;;;18.90;64.20;;;;;;4976555;28;20026;-67
2021/12/14 11:04:06;;;;;;;1.65;0.80;;;18.90;64.20;;;;;;5012728;28;20028;-67
2021/12/14 11:06:32;;;;;;;;;;;18.90;64.10;;;;;;5011696;28;20172;-67
2021/12/14 11:09:39;;;;;;;0.57;0.40;;;18.90;64.00;;;;;;4995061;28;20401;-67
2021/12/14 11:11:52;;;;;;;0.30;0.30;;;18.80;64.30;;;;;;5011519;28;20510;-67
2021/12/14 11:14:20;;;;;;;1.48;0.50;;;18.90;64.30;;;;;;5011023;28;20022;-67
2021/12/14 11:19:43;;;;;;;0.30;0.30;;;18.90;64.20;;;;;;5011621;28;20095;-67
2021/12/14 11:22:12;;;;;;;0.32;0.30;;;18.90;64.20;;;;;;5012582;28;20033;-67
2021/12/14 11:24:38;;;;;;;0.52;0.50;;;18.90;64.20;;;;;;4995510;28;20495;-67
2021/12/14 11:27:18;;;;;;;0.30;0.30;;;18.90;64.10;;;;;;4994616;28;20025;-67
2021/12/14 11:29:44;;;;;;;0.60;0.30;;;18.90;64.00;;;;;;5011246;28;20029;-67
2021/12/14 11:32:19;;;;;;;0.52;0.52;;;18.90;64.00;;;;;;5012398;28;20033;-67
2021/12/14 11:34:45;;;;;;;0.28;0.28;;;18.90;64.00;;;;;;5011238;28;20026;-67
2021/12/14 11:37:15;;;;;;;0.65;0.50;;;18.90;64.00;;;;;;4994947;28;20029;-67
2021/12/14 11:39:44;;;;;;;0.40;0.40;;;18.90;64.00;;;;;;4995497;28;20041;-67
2021/12/14 11:42:12;;;;;;;0.25;0.20;;;19.00;64.10;;;;;;4978475;28;20040;-67
2021/12/14 11:44:40;;;;;;;0.73;0.47;;;19.00;64.00;;;;;;5011189;28;20032;-67
2021/12/14 11:47:11;;;;;;;0.40;0.40;;;18.90;63.90;;;;;;4995002;28;20026;-67
2021/12/14 11:49:41;;;;;;;0.40;0.40;;;19.00;64.00;;;;;;5012310;28;20022;-67
2021/12/14 11:52:07;;;;;;;0.52;0.30;;;19.00;64.00;;;;;;5012626;28;20026;-67
2021/12/14 11:54:39;;;;;;;0.50;0.50;;;18.90;63.90;;;;;;4998500;28;20021;-67
2021/12/14 11:57:06;;;;;;;0.40;0.40;;;19.00;63.90;;;;;;5014561;28;20547;-67
2021/12/14 11:59:31;;;;;;;0.45;0.35;;;18.90;63.90;;;;;;4998589;28;20046;-67
2021/12/14 12:01:57;;;;;;;0.30;0.30;;;19.00;63.90;;;;;;5011666;28;20456;-67
2021/12/14 12:04:32;;;;;;;0.60;0.60;;;19.00;63.80;;;;;;4995939;28;20513;-67
2021/12/14 12:09:48;;;;;;;1.33;0.50;;;19.00;63.60;;;;;;4995853;28;20038;-67
2021/12/14 12:12:29;;;;;;;0.40;0.40;;;18.90;63.80;;;;;;4992568;28;20080;-67
2021/12/14 12:15:10;;;;;;;0.63;0.50;;;19.00;63.80;;;;;;5014363;28;20022;-67
2021/12/14 12:17:41;;;;;;;0.40;0.40;;;18.90;63.70;;;;;;5015699;28;20026;-67
2021/12/14 12:20:31;;;;;;;0.40;0.40;;;18.90;63.70;;;;;;5014636;28;20357;-67
2021/12/14 12:22:57;;;;;;;0.30;0.30;;;19.00;63.80;;;;;;5014556;28;20058;-67
2021/12/14 12:25:32;;;;;;;0.60;0.45;;;18.90;63.70;;;;;;5015119;28;20022;-67
2021/12/14 12:28:00;;;;;;;0.40;0.40;;;19.00;63.70;;;;;;5014253;28;20029;-67
2021/12/14 12:30:33;;;;;;;0.57;0.50;;;18.90;63.70;;;;;;5015363;28;20103;-67
2021/12/14 12:33:16;;;;;;;0.32;0.32;;;18.90;63.60;;;;;;5015465;28;20034;-67
2021/12/14 12:36:03;;;;;;;0.40;0.40;;;19.00;63.70;;;;;;5014391;28;20030;-67
2021/12/14 12:38:28;;;;;;;0.40;0.40;;;19.00;63.70;;;;;;5015033;28;20029;-67
2021/12/14 12:40:59;;;;;;;0.30;0.30;;;18.90;63.70;;;;;;5014947;28;20022;-67
2021/12/14 12:43:27;;;;;;;0.47;0.40;;;19.00;63.60;;;;;;5014188;28;20156;-67
2021/12/14 12:46:00;;;;;;;0.45;0.40;;;19.00;63.70;;;;;;5015167;28;20026;-67
2021/12/14 12:48:50;;;;;;;0.45;0.45;;;19.00;63.60;;;;;;5014932;28;20037;-67
2021/12/14 12:51:37;;;;;;;0.35;0.35;;;19.00;63.40;;;;;;5013858;28;20045;-67
2021/12/14 12:54:15;;;;;;;0.63;0.30;;;19.00;63.50;;;;;;5014860;28;20029;-67
2021/12/14 12:56:42;;;;;;;0.38;0.38;;;19.00;63.50;;;;;;5015078;28;20557;-67
2021/12/14 12:59:09;;;;;;;0.65;0.55;;;18.90;64.10;;;;;;4997751;28;20022;-67
2021/12/14 13:01:36;;;;;;;1.30;0.40;;;19.00;63.50;;;;;;5014643;28;20014;-67
2021/12/14 13:04:01;;;;;;;0.50;0.50;;;19.00;63.60;;;;;;5013376;28;20406;-67
2021/12/14 13:06:27;;;;;;;0.35;0.30;;;19.00;63.50;;;;;;5013376;28;20117;-67
2021/12/14 13:08:57;;;;;;;0.40;0.40;;;19.00;63.50;;;;;;5013281;28;20492;-67
2021/12/14 13:11:26;;;;;;;0.65;0.40;;;19.00;63.50;;;;;;5007293;28;20097;-67
2021/12/14 13:13:56;;;;;;;0.55;0.50;;;19.00;63.40;;;;;;4995425;28;20117;-67
2021/12/14 13:16:24;;;;;;;0.30;0.30;;;19.00;63.40;;;;;;4995260;28;20063;-67
2021/12/14 13:18:54;;;;;;;0.35;0.35;;;19.00;63.40;;;;;;4995026;28;20025;-67
2021/12/14 13:21:38;;;;;;;0.30;0.30;;;19.00;63.40;;;;;;4995141;28;20072;-67
2021/12/14 13:24:08;;;;;;;0.50;0.50;;;19.00;63.30;;;;;;4994566;28;20381;-67
2021/12/14 13:26:35;;;;;;;0.60;0.60;;;19.00;63.40;;;;;;4994771;28;20049;-67
2021/12/14 13:29:14;;;;;;;0.30;0.30;;;19.00;63.40;;;;;;4994888;28;20030;-67
2021/12/14 13:32:17;;;;;;;0.30;0.30;;;19.00;63.40;;;;;;4995067;28;20393;-67
2021/12/14 13:35:05;;;;;;;0.40;0.30;;;19.00;63.10;;;;;;4985643;28;20078;-67
2021/12/14 13:37:34;;;;;;;0.28;0.28;;;19.10;63.30;;;;;;4993089;28;20030;-67
2021/12/14 13:40:01;;;;;;;0.30;0.30;;;19.00;63.40;;;;;;4993608;28;20030;-67
2021/12/14 13:42:41;;;;;;;0.40;0.40;;;19.00;63.40;;;;;;4977111;28;20030;-67
2021/12/14 13:45:10;;;;;;;0.30;0.30;;;19.10;63.30;;;;;;4993342;28;20034;-67
2021/12/14 13:47:35;;;;;;;0.50;0.50;;;19.00;63.20;;;;;;4977221;28;20034;-67